Time;durP1;ratioP1;P1;durP2;ratioP2;P2;SDS_P1;SDS_P2;PMS_P1;PMS_P2;Temp;Humidity;BMP_temperature;BMP_pressure;BME280_temperature;BME280_humidity;BME280_pressure;Samples;Min_cycle;Max_cycle;Signal;HPM_P1;HPM_P2
2022/07/06 00:02:24;;;;;;;5.50;5.00;;;20.10;99.70;;;;;;6253886;28;20240;-61
2022/07/06 00:05:27;;;;;;;6.13;5.53;;;20.20;99.70;;;;;;6253570;28;20228;-61
2022/07/06 00:08:30;;;;;;;5.60;5.20;;;20.20;99.70;;;;;;6253744;28;20701;-61
2022/07/06 00:11:34;;;;;;;5.23;4.93;;;20.20;99.60;;;;;;6253378;28;20228;-62
2022/07/06 00:14:37;;;;;;;5.57;5.07;;;20.20;99.70;;;;;;6253876;28;20232;-61
2022/07/06 00:17:41;;;;;;;5.30;5.00;;;20.20;99.70;;;;;;6253649;28;20244;-61
2022/07/06 00:20:45;;;;;;;5.00;4.60;;;20.20;99.80;;;;;;6253381;28;20228;-61
2022/07/06 00:23:48;;;;;;;5.53;5.13;;;20.20;99.90;;;;;;6253012;28;20232;-61
2022/07/06 00:26:51;;;;;;;5.33;4.83;;;20.20;99.90;;;;;;6253239;28;20567;-61
2022/07/06 00:29:54;;;;;;;5.53;5.13;;;20.10;99.90;;;;;;6253392;28;20235;-61
2022/07/06 00:32:59;;;;;;;5.33;4.90;;;20.10;99.90;;;;;;6253115;28;20232;-61
2022/07/06 00:36:02;;;;;;;5.20;4.80;;;20.00;99.90;;;;;;6253257;28;20236;-62
2022/07/06 00:39:05;;;;;;;5.23;4.83;;;20.00;99.90;;;;;;6252884;28;20247;-62
2022/07/06 00:42:08;;;;;;;6.30;5.13;;;19.90;99.90;;;;;;6252797;28;20563;-62
2022/07/06 00:45:13;;;;;;;5.93;5.53;;;19.90;99.90;;;;;;6252926;28;20227;-62
2022/07/06 00:48:17;;;;;;;5.23;4.73;;;19.90;99.90;;;;;;6252718;28;20285;-62
2022/07/06 00:51:23;;;;;;;5.93;5.00;;;19.90;99.90;;;;;;6252472;28;20225;-62
2022/07/06 00:54:27;;;;;;;5.00;4.70;;;19.80;99.90;;;;;;6252564;28;20259;-62
2022/07/06 00:57:30;;;;;;;5.30;5.00;;;19.90;99.90;;;;;;6252349;28;20228;-62
2022/07/06 01:00:34;;;;;;;5.70;5.40;;;19.80;99.90;;;;;;6252233;28;20233;-62
2022/07/06 01:03:39;;;;;;;6.57;5.53;;;19.70;99.90;;;;;;6252627;28;20685;-62
2022/07/06 01:06:42;;;;;;;6.97;6.30;;;19.80;99.90;;;;;;6252196;28;20243;-62
2022/07/06 01:09:45;;;;;;;6.13;5.63;;;19.80;99.90;;;;;;6252283;28;20250;-62
2022/07/06 01:12:49;;;;;;;5.57;5.27;;;19.70;99.90;;;;;;6252161;28;20228;-62
2022/07/06 01:15:52;;;;;;;6.60;6.10;;;19.70;99.90;;;;;;6252161;28;20543;-62
2022/07/06 01:18:57;;;;;;;5.93;5.53;;;19.70;99.90;;;;;;6251944;28;20255;-62
2022/07/06 01:22:02;;;;;;;8.20;5.47;;;19.70;99.90;;;;;;6251911;28;20232;-62
2022/07/06 01:25:06;;;;;;;6.13;5.60;;;19.60;99.90;;;;;;6242721;28;20674;-62
2022/07/06 01:28:09;;;;;;;6.03;5.63;;;19.50;99.90;;;;;;6251618;28;20586;-62
2022/07/06 01:31:16;;;;;;;6.60;6.00;;;19.40;99.90;;;;;;6251661;28;20232;-62
2022/07/06 01:34:20;;;;;;;6.30;5.80;;;19.40;99.90;;;;;;6251396;28;20552;-61
2022/07/06 01:37:25;;;;;;;6.20;5.70;;;19.50;99.90;;;;;;6251759;28;20232;-61
2022/07/06 01:40:28;;;;;;;6.43;5.93;;;19.40;99.90;;;;;;6250107;28;20255;-61
2022/07/06 01:43:31;;;;;;;5.87;5.43;;;19.30;99.90;;;;;;6227001;28;20212;-62
2022/07/06 01:46:35;;;;;;;6.13;5.63;;;19.30;99.90;;;;;;6227195;28;20224;-62
2022/07/06 01:49:38;;;;;;;5.87;5.47;;;19.20;99.90;;;;;;6227783;28;20607;-62
2022/07/06 01:52:43;;;;;;;6.20;5.60;;;19.20;99.90;;;;;;6251389;28;20197;-62
2022/07/06 01:55:46;;;;;;;6.93;6.40;;;19.20;99.90;;;;;;6251650;28;20200;-62
2022/07/06 01:58:49;;;;;;;9.27;5.50;;;19.20;99.90;;;;;;6250687;28;20225;-62
2022/07/06 02:01:52;;;;;;;6.33;5.70;;;19.20;99.90;;;;;;6250842;28;20243;-62
2022/07/06 02:04:56;;;;;;;5.97;5.57;;;19.10;99.90;;;;;;6250733;28;20228;-62
2022/07/06 02:08:00;;;;;;;6.40;6.00;;;19.10;99.90;;;;;;6250766;28;20224;-62
2022/07/06 02:11:04;;;;;;;5.90;5.50;;;19.10;99.90;;;;;;6250896;28;20235;-62
2022/07/06 02:14:07;;;;;;;6.80;5.80;;;19.00;99.90;;;;;;6250544;28;20224;-62
2022/07/06 02:17:10;;;;;;;6.43;6.03;;;19.00;99.90;;;;;;6250898;28;20228;-62
2022/07/06 02:20:13;;;;;;;6.17;5.77;;;18.90;99.90;;;;;;6250745;28;20271;-62
2022/07/06 02:23:18;;;;;;;5.30;5.00;;;18.80;99.90;;;;;;6250435;28;20246;-61
2022/07/06 02:26:21;;;;;;;6.07;5.63;;;18.90;99.90;;;;;;6246004;28;20228;-61
2022/07/06 02:29:25;;;;;;;6.17;5.77;;;18.90;99.90;;;;;;6250324;28;20697;-61
2022/07/06 02:32:29;;;;;;;5.37;4.90;;;18.90;99.90;;;;;;6250424;28;20221;-61
2022/07/06 02:35:32;;;;;;;7.47;6.97;;;18.90;99.90;;;;;;6250482;28;20229;-61
2022/07/06 02:38:36;;;;;;;8.53;6.37;;;18.90;99.90;;;;;;6250422;28;20251;-62
2022/07/06 02:41:39;;;;;;;7.27;6.60;;;18.90;99.90;;;;;;6250126;28;20533;-62
2022/07/06 02:44:42;;;;;;;7.30;6.70;;;18.90;99.90;;;;;;6250022;28;20709;-61
2022/07/06 02:47:46;;;;;;;7.10;6.60;;;18.80;99.90;;;;;;6250058;28;20709;-61
2022/07/06 02:50:49;;;;;;;6.37;5.87;;;18.80;99.90;;;;;;6249748;28;20303;-61
2022/07/06 02:53:53;;;;;;;7.43;6.83;;;18.80;99.90;;;;;;6250243;28;20243;-61
2022/07/06 02:56:56;;;;;;;6.70;6.30;;;18.90;99.90;;;;;;6250117;28;20236;-61
2022/07/06 03:00:00;;;;;;;6.20;5.80;;;18.90;99.90;;;;;;6250409;28;20242;-61
2022/07/06 03:03:03;;;;;;;5.60;5.10;;;18.80;99.90;;;;;;6249858;28;20704;-62
2022/07/06 03:06:06;;;;;;;6.67;6.27;;;18.80;99.90;;;;;;6249774;28;20317;-62
2022/07/06 03:09:11;;;;;;;6.10;5.60;;;18.70;99.90;;;;;;6249903;28;20540;-62
2022/07/06 03:12:15;;;;;;;6.50;6.00;;;18.70;99.90;;;;;;6249734;28;20662;-62
2022/07/06 03:15:19;;;;;;;5.93;5.53;;;18.80;99.90;;;;;;6249943;28;20228;-60
2022/07/06 03:18:22;;;;;;;7.17;6.60;;;18.80;99.90;;;;;;6249525;28;20561;-62
2022/07/06 03:21:26;;;;;;;6.80;6.20;;;18.80;99.90;;;;;;6249721;28;20494;-61
2022/07/06 03:24:30;;;;;;;6.90;6.40;;;18.80;99.90;;;;;;6249850;28;20245;-61
2022/07/06 03:27:35;;;;;;;6.73;6.13;;;18.70;99.90;;;;;;6250088;28;20235;-61
2022/07/06 03:30:39;;;;;;;13.10;5.80;;;18.70;99.90;;;;;;6249927;28;20251;-61
2022/07/06 03:33:42;;;;;;;6.80;6.37;;;18.70;99.90;;;;;;6249621;28;20235;-62
2022/07/06 03:36:45;;;;;;;6.40;5.93;;;18.70;99.90;;;;;;6249451;28;20243;-62
2022/07/06 03:39:49;;;;;;;6.60;6.00;;;18.70;99.90;;;;;;6249103;28;20483;-61
2022/07/06 03:42:53;;;;;;;7.93;6.00;;;18.70;99.90;;;;;;6250842;28;20229;-61
2022/07/06 03:45:56;;;;;;;7.83;6.57;;;18.80;99.90;;;;;;6250999;28;20463;-61
2022/07/06 03:48:59;;;;;;;6.10;5.60;;;18.80;99.90;;;;;;6250868;28;20671;-61
2022/07/06 03:52:02;;;;;;;6.57;5.90;;;18.90;99.90;;;;;;6249453;28;20220;-61
2022/07/06 03:55:09;;;;;;;7.00;6.43;;;18.90;99.90;;;;;;6249265;28;20232;-61
2022/07/06 03:58:12;;;;;;;6.30;5.80;;;19.00;99.90;;;;;;6249268;28;20233;-61
2022/07/06 04:01:15;;;;;;;5.83;5.53;;;19.00;99.90;;;;;;6249272;28;20229;-61
2022/07/06 04:04:18;;;;;;;7.13;5.97;;;19.10;99.90;;;;;;6251249;28;20319;-61
2022/07/06 04:07:21;;;;;;;6.80;6.23;;;19.20;99.90;;;;;;6253694;28;20232;-61
2022/07/06 04:10:26;;;;;;;6.83;6.33;;;19.20;99.90;;;;;;6253584;28;20946;-61
2022/07/06 04:13:29;;;;;;;6.57;5.97;;;19.30;99.90;;;;;;6255237;28;20224;-61
2022/07/06 04:16:32;;;;;;;6.37;5.90;;;19.40;99.90;;;;;;6253153;28;20228;-61
2022/07/06 04:19:36;;;;;;;7.40;6.90;;;19.40;99.90;;;;;;6228717;28;20229;-61
2022/07/06 04:22:39;;;;;;;6.30;5.90;;;19.50;99.90;;;;;;6229892;28;20655;-61
2022/07/06 04:25:44;;;;;;;6.77;6.27;;;19.60;99.90;;;;;;6253610;28;20538;-61
2022/07/06 04:28:47;;;;;;;6.90;6.03;;;19.70;99.90;;;;;;6252802;28;20671;-61
2022/07/06 04:31:50;;;;;;;6.90;6.20;;;19.80;99.90;;;;;;6253426;28;20200;-61
2022/07/06 04:34:53;;;;;;;6.50;5.90;;;19.90;99.90;;;;;;6248893;28;20232;-61
2022/07/06 04:37:56;;;;;;;7.30;6.60;;;20.00;99.90;;;;;;6252878;28;20358;-61
2022/07/06 04:41:01;;;;;;;7.70;5.57;;;20.00;99.90;;;;;;6253177;28;20225;-61
2022/07/06 04:44:04;;;;;;;7.50;6.80;;;20.00;99.90;;;;;;6252792;28;20686;-61
2022/07/06 04:47:08;;;;;;;6.47;5.90;;;20.00;99.90;;;;;;6252885;28;20221;-61
2022/07/06 04:50:11;;;;;;;7.20;6.60;;;20.00;99.90;;;;;;6252373;28;20670;-61
2022/07/06 04:53:14;;;;;;;7.07;6.50;;;20.00;99.90;;;;;;6253117;28;20224;-61
2022/07/06 04:56:19;;;;;;;6.30;5.80;;;19.90;99.90;;;;;;6252553;28;20224;-61
2022/07/06 04:59:22;;;;;;;7.40;6.70;;;19.90;99.90;;;;;;6252517;28;20236;-61
2022/07/06 05:02:25;;;;;;;6.90;6.30;;;19.80;99.90;;;;;;6253234;28;20232;-62
2022/07/06 05:05:28;;;;;;;7.30;6.73;;;19.80;99.90;;;;;;6256414;28;20244;-62
2022/07/06 05:08:31;;;;;;;6.83;6.33;;;19.90;99.90;;;;;;6254389;28;20243;-61
2022/07/06 05:11:37;;;;;;;7.03;6.43;;;20.10;99.90;;;;;;6252519;28;20224;-62
2022/07/06 05:14:40;;;;;;;7.60;6.90;;;20.20;99.90;;;;;;6251932;28;20228;-62
2022/07/06 05:17:43;;;;;;;6.50;6.00;;;20.40;99.90;;;;;;6251978;28;20228;-62
2022/07/06 05:20:46;;;;;;;5.93;5.53;;;20.60;99.90;;;;;;6252082;28;20232;-62
2022/07/06 05:23:49;;;;;;;6.60;6.00;;;20.80;99.90;;;;;;6251962;28;20663;-62
2022/07/06 05:26:54;;;;;;;6.67;6.07;;;20.90;99.90;;;;;;6251752;28;20238;-62
2022/07/06 05:29:57;;;;;;;7.20;6.60;;;21.00;99.90;;;;;;6251300;28;20243;-62
2022/07/06 05:33:00;;;;;;;6.00;5.30;;;21.20;99.80;;;;;;6251250;28;20236;-62
2022/07/06 05:36:04;;;;;;;6.90;6.20;;;21.30;99.40;;;;;;6251505;28;20681;-62
2022/07/06 05:39:07;;;;;;;8.27;5.93;;;21.40;99.20;;;;;;6242025;28;20244;-62
2022/07/06 05:42:12;;;;;;;7.03;5.47;;;21.40;99.10;;;;;;6251331;28;20236;-62
2022/07/06 05:45:15;;;;;;;14.13;6.03;;;21.60;99.00;;;;;;6251594;28;20304;-62
2022/07/06 05:51:38;;;;;;;6.20;5.80;;;22.00;98.30;;;;;;6251437;28;20224;-62
2022/07/06 05:54:41;;;;;;;7.87;6.03;;;22.10;97.90;;;;;;6251157;28;20674;-62
2022/07/06 05:57:46;;;;;;;6.10;5.70;;;22.30;97.60;;;;;;6251140;28;20682;-63
2022/07/06 06:00:49;;;;;;;6.33;5.83;;;22.50;97.40;;;;;;6251159;28;20228;-62
2022/07/06 06:03:52;;;;;;;6.33;5.80;;;22.50;97.10;;;;;;6250877;28;20546;-62
2022/07/06 06:06:55;;;;;;;7.67;6.87;;;22.60;97.00;;;;;;6251010;28;20681;-62
2022/07/06 06:09:58;;;;;;;5.70;5.20;;;22.90;96.60;;;;;;6250936;28;20662;-62
2022/07/06 06:13:03;;;;;;;6.27;5.70;;;23.10;95.90;;;;;;6250840;28;20228;-62
2022/07/06 06:16:06;;;;;;;7.50;5.60;;;23.50;95.50;;;;;;6250896;28;20228;-61
2022/07/06 06:19:09;;;;;;;6.90;4.90;;;24.10;94.20;;;;;;6250433;28;20244;-61
2022/07/06 06:22:12;;;;;;;7.03;4.90;;;24.70;93.60;;;;;;6250968;28;20228;-61
2022/07/06 06:25:16;;;;;;;10.33;4.93;;;25.40;92.00;;;;;;6250575;28;20293;-62
2022/07/06 06:28:21;;;;;;;5.47;5.07;;;26.00;90.10;;;;;;6249767;28;20568;-62
2022/07/06 06:31:24;;;;;;;5.40;4.90;;;26.80;86.90;;;;;;6250177;28;20934;-62
2022/07/06 06:34:27;;;;;;;5.83;4.73;;;27.30;85.10;;;;;;6250275;28;20219;-62
2022/07/06 06:37:30;;;;;;;5.00;4.60;;;27.80;82.60;;;;;;6250519;28;20228;-61
2022/07/06 06:40:34;;;;;;;4.47;4.17;;;28.30;78.80;;;;;;6225469;28;20240;-61
2022/07/06 06:43:39;;;;;;;4.50;3.90;;;28.80;74.30;;;;;;6226142;28;20228;-62
2022/07/06 06:46:42;;;;;;;5.73;5.00;;;29.40;72.30;;;;;;6227231;28;20185;-63
2022/07/06 06:49:45;;;;;;;11.10;4.70;;;30.00;69.40;;;;;;6250023;28;20227;-64
2022/07/06 06:52:49;;;;;;;5.70;5.17;;;30.30;67.40;;;;;;6250902;28;20239;-63
2022/07/06 06:55:52;;;;;;;5.57;4.60;;;31.00;64.60;;;;;;6250301;28;20208;-63
2022/07/06 06:58:56;;;;;;;5.45;4.82;;;31.60;62.60;;;;;;6249970;28;20227;-63
2022/07/06 07:02:19;;;;;;;6.57;4.97;;;32.10;58.80;;;;;;6249814;28;20228;-69
2022/07/06 07:05:22;;;;;;;6.75;4.85;;;32.70;57.50;;;;;;6249778;28;20231;-63
2022/07/06 07:08:25;;;;;;;5.00;4.18;;;33.20;56.20;;;;;;6249484;28;20696;-63
2022/07/06 07:11:29;;;;;;;4.80;4.50;;;33.70;54.40;;;;;;6249637;28;20314;-63
2022/07/06 07:14:34;;;;;;;5.00;4.60;;;34.10;53.10;;;;;;6249935;28;20227;-63
2022/07/06 07:17:37;;;;;;;4.88;4.40;;;34.60;50.40;;;;;;6250399;28;20228;-63
2022/07/06 07:20:40;;;;;;;7.05;5.22;;;35.00;50.70;;;;;;6249943;28;20251;-63
2022/07/06 07:23:43;;;;;;;6.25;5.05;;;35.40;50.20;;;;;;6249745;28;20546;-63
2022/07/06 07:26:46;;;;;;;6.15;4.57;;;35.20;49.50;;;;;;6249520;28;20235;-64
2022/07/06 07:29:51;;;;;;;5.10;4.53;;;35.70;49.10;;;;;;6249742;28;20235;-63
2022/07/06 07:32:55;;;;;;;5.93;4.07;;;36.50;47.60;;;;;;6249387;28;20238;-63
2022/07/06 07:35:58;;;;;;;5.88;5.03;;;37.30;44.20;;;;;;6249439;28;20236;-63
2022/07/06 07:39:02;;;;;;;4.63;4.32;;;37.50;43.90;;;;;;6251625;28;20580;-63
2022/07/06 07:42:05;;;;;;;4.88;4.45;;;38.10;43.30;;;;;;6254295;28;20239;-63
2022/07/06 07:45:11;;;;;;;5.03;4.53;;;38.80;41.80;;;;;;6254062;28;20312;-63
2022/07/06 07:48:15;;;;;;;5.88;4.82;;;39.40;40.30;;;;;;6247503;28;20676;-62
2022/07/06 07:51:18;;;;;;;6.72;4.90;;;39.50;39.30;;;;;;6215101;28;20237;-62
2022/07/06 07:54:21;;;;;;;5.13;4.53;;;39.20;39.90;;;;;;6203472;28;20239;-62
2022/07/06 07:57:24;;;;;;;5.38;4.57;;;38.80;39.40;;;;;;6205010;28;20244;-63
2022/07/06 08:00:29;;;;;;;4.50;4.10;;;38.10;39.70;;;;;;6204594;28;20233;-62
2022/07/06 08:03:32;;;;;;;5.07;4.63;;;37.30;39.40;;;;;;6204689;28;20652;-62
2022/07/06 08:06:35;;;;;;;6.05;4.60;;;36.40;40.80;;;;;;6204684;28;20231;-62
2022/07/06 08:09:39;;;;;;;4.53;3.85;;;35.50;41.80;;;;;;6205200;28;20315;-62
2022/07/06 08:12:42;;;;;;;3.08;2.78;;;34.90;40.80;;;;;;6204754;28;20236;-62
2022/07/06 08:15:49;;;;;;;4.40;3.30;;;34.30;41.40;;;;;;6205387;28;20312;-62
2022/07/06 08:18:52;;;;;;;2.75;2.30;;;33.90;39.50;;;;;;6204637;28;20229;-62
2022/07/06 08:21:55;;;;;;;2.60;2.40;;;33.30;41.20;;;;;;6205034;28;20243;-62
2022/07/06 08:24:59;;;;;;;3.20;3.00;;;33.00;41.60;;;;;;6204223;28;20237;-64
2022/07/06 08:28:02;;;;;;;3.38;2.88;;;32.60;41.20;;;;;;6212793;28;20689;-63
2022/07/06 08:31:07;;;;;;;2.40;2.20;;;32.20;41.20;;;;;;6249012;28;20634;-63
2022/07/06 08:34:30;;;;;;;3.00;2.70;;;31.70;40.40;;;;;;6252351;28;20216;-63
2022/07/06 08:37:36;;;;;;;2.65;2.45;;;31.20;40.30;;;;;;6249903;28;20220;-63
2022/07/06 08:40:41;;;;;;;3.63;2.25;;;30.80;41.00;;;;;;6237582;28;20233;-64
2022/07/06 08:43:44;;;;;;;3.83;2.45;;;30.40;40.80;;;;;;6254459;28;20521;-63
2022/07/06 08:46:52;;;;;;;3.20;2.65;;;30.20;41.50;;;;;;6226396;28;20220;-63
2022/07/06 08:49:56;;;;;;;3.40;3.10;;;30.00;41.30;;;;;;6220000;28;20241;-63
2022/07/06 08:52:59;;;;;;;2.67;1.95;;;30.00;41.70;;;;;;6229194;28;20390;-63
2022/07/06 08:56:03;;;;;;;2.20;2.00;;;30.00;42.20;;;;;;6233459;28;20237;-63
2022/07/06 08:59:08;;;;;;;2.83;2.63;;;30.10;40.30;;;;;;6248790;28;20232;-64
2022/07/06 09:02:14;;;;;;;3.22;2.70;;;30.20;40.50;;;;;;6232955;28;20232;-63
2022/07/06 09:05:18;;;;;;;3.10;2.25;;;30.30;39.80;;;;;;6237097;28;20342;-64
2022/07/06 09:08:23;;;;;;;5.10;2.20;;;30.20;38.70;;;;;;6245268;28;20255;-63
2022/07/06 09:11:26;;;;;;;4.15;2.70;;;30.00;39.60;;;;;;6226483;28;20235;-64
2022/07/06 09:14:30;;;;;;;2.35;2.20;;;30.00;41.40;;;;;;6222570;28;20220;-63
2022/07/06 09:17:39;;;;;;;2.65;2.13;;;30.20;41.00;;;;;;6225542;28;20238;-63
2022/07/06 09:20:43;;;;;;;2.72;2.50;;;30.30;40.90;;;;;;6226356;28;20244;-63
2022/07/06 09:23:46;;;;;;;2.63;2.42;;;30.30;42.80;;;;;;6227163;28;20233;-62
2022/07/06 09:26:49;;;;;;;4.70;2.33;;;30.50;45.20;;;;;;6226919;28;20366;-63
2022/07/06 09:29:52;;;;;;;2.60;2.40;;;30.50;40.00;;;;;;6227310;28;20228;-63
2022/07/06 09:32:58;;;;;;;2.60;2.40;;;30.40;41.20;;;;;;6226623;28;20220;-63
2022/07/06 09:36:02;;;;;;;2.88;2.20;;;30.50;40.60;;;;;;6229098;28;20224;-64
2022/07/06 09:39:20;;;;;;;2.60;2.50;;;30.50;40.40;;;;;;6226284;28;20247;-63
2022/07/06 09:42:26;;;;;;;2.38;2.17;;;30.50;40.90;;;;;;6226649;28;20560;-63
2022/07/06 09:45:29;;;;;;;3.75;2.33;;;30.70;40.60;;;;;;6226686;28;20243;-63
2022/07/06 09:48:36;;;;;;;4.53;2.40;;;30.80;40.20;;;;;;6226783;28;20670;-63
2022/07/06 09:51:40;;;;;;;2.65;2.45;;;30.80;39.10;;;;;;6226154;28;20221;-63
2022/07/06 09:54:43;;;;;;;3.42;2.72;;;30.80;39.20;;;;;;6222227;28;20224;-64
2022/07/06 09:57:54;;;;;;;2.35;2.25;;;31.00;39.10;;;;;;6226228;28;20260;-63
2022/07/06 10:00:58;;;;;;;2.22;2.13;;;31.10;39.10;;;;;;6225358;28;20401;-63
2022/07/06 10:04:02;;;;;;;3.25;2.25;;;31.20;39.00;;;;;;6226379;28;20240;-63
2022/07/06 10:07:07;;;;;;;2.60;2.40;;;31.10;38.80;;;;;;6226001;28;20232;-63
2022/07/06 10:10:12;;;;;;;2.50;2.25;;;30.80;39.50;;;;;;6226030;28;20300;-63
2022/07/06 10:13:20;;;;;;;2.63;2.42;;;30.40;38.90;;;;;;6225685;28;20276;-63
2022/07/06 10:16:24;;;;;;;2.45;2.10;;;30.20;38.80;;;;;;6226006;28;20231;-62
2022/07/06 10:19:31;;;;;;;2.28;2.08;;;30.10;39.30;;;;;;6225892;28;20566;-65
2022/07/06 10:22:35;;;;;;;2.30;2.10;;;30.10;40.30;;;;;;6226097;28;20232;-61
2022/07/06 10:25:39;;;;;;;2.40;2.20;;;30.10;39.10;;;;;;6226268;28;20224;-63
2022/07/06 10:28:43;;;;;;;1.80;1.70;;;30.10;38.50;;;;;;6225929;28;20220;-61
2022/07/06 10:31:48;;;;;;;1.80;1.70;;;30.20;37.80;;;;;;6225388;28;20220;-63
2022/07/06 10:34:52;;;;;;;2.40;2.00;;;30.20;37.70;;;;;;6225480;28;20205;-62
2022/07/06 10:38:06;;;;;;;2.53;2.33;;;30.30;38.80;;;;;;6225485;28;20228;-63
2022/07/06 10:41:10;;;;;;;1.85;1.75;;;30.60;39.10;;;;;;6225520;28;20236;-63
2022/07/06 10:44:17;;;;;;;3.17;1.95;;;30.70;36.40;;;;;;6225485;28;20239;-63
2022/07/06 10:47:28;;;;;;;2.78;1.70;;;30.80;36.40;;;;;;6224888;28;20268;-63
2022/07/06 10:50:37;;;;;;;1.88;1.67;;;30.90;35.30;;;;;;6225623;28;20242;-63
2022/07/06 10:53:41;;;;;;;2.17;1.98;;;31.00;35.30;;;;;;6225336;28;20556;-63
2022/07/06 10:56:46;;;;;;;2.33;1.90;;;30.90;35.40;;;;;;6225204;28;20243;-63
2022/07/06 11:00:02;;;;;;;2.47;2.20;;;30.80;34.50;;;;;;6221405;28;20240;-63
2022/07/06 11:03:41;;;;;;;2.17;1.85;;;30.70;37.20;;;;;;6225084;28;20229;-63
2022/07/06 11:06:47;;;;;;;2.03;1.83;;;30.80;36.90;;;;;;6220834;28;20233;-63
2022/07/06 11:09:56;;;;;;;2.03;1.60;;;30.60;34.90;;;;;;6225211;28;20569;-62
2022/07/06 11:13:00;;;;;;;3.35;1.90;;;30.60;36.30;;;;;;6226916;28;20316;-62
2022/07/06 11:16:04;;;;;;;1.98;1.88;;;30.70;36.90;;;;;;6230314;28;20247;-62
2022/07/06 11:19:10;;;;;;;2.85;2.33;;;30.90;37.50;;;;;;6229983;28;20251;-63
2022/07/06 11:22:18;;;;;;;1.88;1.77;;;30.90;36.00;;;;;;6230415;28;20228;-63
2022/07/06 11:25:21;;;;;;;1.63;1.45;;;30.80;36.10;;;;;;6229730;28;20238;-62
2022/07/06 11:28:26;;;;;;;2.35;2.00;;;30.80;36.40;;;;;;6229620;28;20243;-62
2022/07/06 11:31:30;;;;;;;1.85;1.75;;;30.90;36.40;;;;;;6229352;28;20347;-63
2022/07/06 11:34:34;;;;;;;2.17;1.83;;;30.90;36.10;;;;;;6229731;28;20231;-62
2022/07/06 11:37:39;;;;;;;3.00;1.95;;;30.90;35.90;;;;;;6230125;28;20227;-63
2022/07/06 11:40:42;;;;;;;3.05;2.00;;;31.00;35.40;;;;;;6252985;28;20254;-63
2022/07/06 11:43:46;;;;;;;2.05;1.85;;;31.00;34.90;;;;;;6231502;28;20204;-64
2022/07/06 11:46:50;;;;;;;2.00;1.70;;;31.10;34.50;;;;;;6252272;28;20224;-63
2022/07/06 11:49:53;;;;;;;2.42;1.67;;;31.20;36.20;;;;;;6232486;28;20228;-63
2022/07/06 11:52:57;;;;;;;2.00;1.80;;;31.20;36.00;;;;;;6250865;28;20228;-63
2022/07/06 11:56:04;;;;;;;1.92;1.83;;;31.10;35.20;;;;;;6233209;28;20227;-63
2022/07/06 11:59:08;;;;;;;2.50;1.80;;;31.00;34.80;;;;;;6249091;28;20228;-63
2022/07/06 12:02:14;;;;;;;2.22;2.03;;;31.00;34.30;;;;;;6233845;28;20306;-64
2022/07/06 12:05:30;;;;;;;2.10;1.60;;;31.10;35.00;;;;;;6248439;28;20702;-65
2022/07/06 12:08:42;;;;;;;2.95;1.85;;;31.30;34.80;;;;;;6234675;28;20220;-64
2022/07/06 12:11:47;;;;;;;1.98;1.77;;;31.30;34.10;;;;;;6246672;28;20220;-63
2022/07/06 12:14:53;;;;;;;1.80;1.67;;;31.30;35.20;;;;;;6229048;28;20229;-63
2022/07/06 12:17:56;;;;;;;2.20;1.65;;;31.30;34.80;;;;;;6234043;28;20686;-64
2022/07/06 12:21:00;;;;;;;1.83;1.73;;;31.30;35.60;;;;;;6231715;28;20248;-62
2022/07/06 12:24:08;;;;;;;2.47;1.70;;;31.40;34.30;;;;;;6227712;28;20675;-64
2022/07/06 12:27:13;;;;;;;1.83;1.73;;;31.50;35.40;;;;;;6228478;28;20370;-63
2022/07/06 12:30:17;;;;;;;2.58;2.38;;;31.60;34.20;;;;;;6241375;28;20224;-64
2022/07/06 12:33:27;;;;;;;2.42;1.75;;;31.30;34.20;;;;;;6253163;28;20708;-63
2022/07/06 12:36:31;;;;;;;3.35;1.80;;;31.10;33.80;;;;;;6253084;28;20224;-64
2022/07/06 12:39:43;;;;;;;1.55;1.45;;;31.20;34.10;;;;;;6265508;28;20253;-67
2022/07/06 12:42:47;;;;;;;3.10;2.20;;;31.30;33.90;;;;;;6268004;28;20232;-65
2022/07/06 12:45:51;;;;;;;2.05;1.95;;;31.40;34.60;;;;;;6270613;28;20236;-65
2022/07/06 12:48:55;;;;;;;2.13;1.92;;;31.60;33.80;;;;;;6267824;28;20249;-65
2022/07/06 12:52:01;;;;;;;3.35;1.70;;;31.50;33.20;;;;;;6271708;28;20228;-65
2022/07/06 12:55:07;;;;;;;2.63;2.05;;;31.40;33.10;;;;;;6268712;28;20295;-65
2022/07/06 12:58:19;;;;;;;1.92;1.80;;;31.30;33.20;;;;;;6266952;28;20258;-65
2022/07/06 13:01:22;;;;;;;2.00;1.65;;;31.20;33.20;;;;;;6264723;28;20242;-65
2022/07/06 13:04:27;;;;;;;1.83;1.50;;;31.10;33.40;;;;;;6265646;28;20289;-65
2022/07/06 13:07:31;;;;;;;2.95;1.70;;;31.10;33.60;;;;;;6258868;28;20232;-65
2022/07/06 13:10:36;;;;;;;2.20;2.00;;;31.20;34.00;;;;;;6262827;28;20235;-65
2022/07/06 13:13:44;;;;;;;2.60;1.75;;;31.20;34.00;;;;;;6234752;28;20224;-65
2022/07/06 13:16:48;;;;;;;1.63;1.40;;;30.90;33.30;;;;;;6256162;28;20192;-66
2022/07/06 13:19:52;;;;;;;2.20;2.00;;;31.00;34.00;;;;;;6229603;28;20228;-66
2022/07/06 13:22:55;;;;;;;3.80;1.88;;;31.10;33.50;;;;;;6227250;28;20209;-66
2022/07/06 13:25:59;;;;;;;2.92;1.75;;;31.20;34.10;;;;;;6228781;28;20232;-66
2022/07/06 13:29:04;;;;;;;3.28;1.67;;;31.30;33.70;;;;;;6228202;28;20233;-65
2022/07/06 13:32:08;;;;;;;1.80;1.60;;;31.40;34.30;;;;;;6227062;28;20235;-65
2022/07/06 13:35:12;;;;;;;2.58;1.90;;;31.50;33.00;;;;;;6227180;28;20240;-66
2022/07/06 13:38:15;;;;;;;2.58;1.88;;;31.60;33.90;;;;;;6232109;28;20236;-65
2022/07/06 13:41:19;;;;;;;2.78;1.98;;;31.60;33.50;;;;;;6245568;28;20777;-65
2022/07/06 13:44:22;;;;;;;2.53;1.95;;;31.60;33.70;;;;;;6226941;28;20308;-65
2022/07/06 13:47:25;;;;;;;5.22;1.83;;;31.40;34.00;;;;;;6226892;28;20233;-65
2022/07/06 13:50:32;;;;;;;3.53;1.48;;;31.40;33.40;;;;;;6227227;28;20282;-65
2022/07/06 13:53:35;;;;;;;1.67;1.58;;;31.40;33.00;;;;;;6235130;28;20231;-65
2022/07/06 13:56:41;;;;;;;2.47;1.60;;;31.40;33.30;;;;;;6243429;28;20225;-65
2022/07/06 13:59:46;;;;;;;2.40;1.48;;;31.50;34.10;;;;;;6226571;28;20318;-65
2022/07/06 14:02:49;;;;;;;1.88;1.67;;;31.50;32.40;;;;;;6226726;28;20611;-64
2022/07/06 14:05:52;;;;;;;2.28;2.08;;;31.70;33.40;;;;;;6226687;28;20243;-64
2022/07/06 14:08:55;;;;;;;2.50;1.40;;;31.90;34.30;;;;;;6239121;28;20719;-65
2022/07/06 14:12:00;;;;;;;1.58;1.42;;;32.20;34.50;;;;;;6240434;28;20686;-65
2022/07/06 14:15:03;;;;;;;1.77;1.60;;;32.20;32.80;;;;;;6237990;28;20334;-63
2022/07/06 14:18:06;;;;;;;2.60;1.50;;;32.20;32.80;;;;;;6250782;28;20545;-63
2022/07/06 14:21:09;;;;;;;2.30;1.50;;;32.20;33.80;;;;;;6251016;28;20243;-63
2022/07/06 14:24:13;;;;;;;5.03;1.75;;;32.20;33.00;;;;;;6250772;28;20550;-65
2022/07/06 14:27:17;;;;;;;2.15;1.60;;;32.30;32.80;;;;;;6250483;28;20232;-65
2022/07/06 14:30:20;;;;;;;2.45;1.30;;;32.30;33.10;;;;;;6251139;28;20243;-65
2022/07/06 14:33:24;;;;;;;1.40;1.30;;;32.40;33.70;;;;;;6250867;28;20247;-65
2022/07/06 14:36:27;;;;;;;4.00;2.08;;;32.30;33.40;;;;;;6250291;28;20224;-63
2022/07/06 14:39:30;;;;;;;2.75;1.92;;;32.20;34.00;;;;;;6249492;28;20238;-62
2022/07/06 14:42:35;;;;;;;3.15;2.17;;;32.10;34.50;;;;;;6249812;28;20812;-62
2022/07/06 14:45:38;;;;;;;1.90;1.70;;;31.70;34.20;;;;;;6249715;28;20236;-62
2022/07/06 14:48:42;;;;;;;2.15;1.67;;;31.40;35.50;;;;;;6247116;28;20223;-63
2022/07/06 14:51:45;;;;;;;2.28;1.75;;;31.20;36.10;;;;;;6249758;28;20230;-63
2022/07/06 14:54:48;;;;;;;3.67;1.92;;;31.10;36.60;;;;;;6231567;28;20228;-62
2022/07/06 14:57:54;;;;;;;2.38;1.80;;;30.90;37.20;;;;;;6225348;28;20651;-62
2022/07/06 15:00:58;;;;;;;2.60;1.90;;;30.70;37.40;;;;;;6243811;28;20224;-61
2022/07/06 15:04:01;;;;;;;2.20;2.00;;;30.50;37.80;;;;;;6229076;28;20235;-62
2022/07/06 15:07:05;;;;;;;1.90;1.80;;;30.50;37.40;;;;;;6224124;28;20224;-62
2022/07/06 15:10:09;;;;;;;2.50;1.90;;;30.40;38.30;;;;;;6244973;28;20234;-61
2022/07/06 15:13:14;;;;;;;2.67;1.90;;;30.20;37.50;;;;;;6227515;28;20229;-62
2022/07/06 15:16:17;;;;;;;2.95;1.85;;;30.20;37.90;;;;;;6233742;28;20227;-62
2022/07/06 15:19:21;;;;;;;2.20;2.00;;;30.10;37.10;;;;;;6248467;28;20219;-62
2022/07/06 15:22:24;;;;;;;1.70;1.60;;;30.00;37.90;;;;;;6226163;28;20220;-62
2022/07/06 15:25:27;;;;;;;1.90;1.80;;;30.00;37.80;;;;;;6247498;28;20227;-64
2022/07/06 15:28:32;;;;;;;1.80;1.70;;;30.00;38.20;;;;;;6248790;28;20692;-64
2022/07/06 15:31:35;;;;;;;2.40;2.00;;;29.90;38.10;;;;;;6248045;28;20227;-63
2022/07/06 15:34:38;;;;;;;1.77;1.67;;;29.70;38.90;;;;;;6249094;28;20226;-63
2022/07/06 15:37:41;;;;;;;2.30;2.10;;;29.70;39.30;;;;;;6247971;28;20215;-65
2022/07/06 15:40:47;;;;;;;2.65;2.20;;;30.00;39.60;;;;;;6246553;28;20236;-64
2022/07/06 15:43:52;;;;;;;2.28;2.13;;;30.30;39.40;;;;;;6246761;28;20214;-64
2022/07/06 15:46:57;;;;;;;2.20;2.00;;;30.50;39.10;;;;;;6247570;28;20302;-63
2022/07/06 15:50:00;;;;;;;2.28;1.50;;;30.50;38.80;;;;;;6247296;28;20685;-64
2022/07/06 15:53:04;;;;;;;1.75;1.45;;;30.50;39.20;;;;;;6246996;28;20233;-62
2022/07/06 15:56:08;;;;;;;2.15;1.95;;;30.30;38.80;;;;;;6249403;28;20527;-65
2022/07/06 15:59:12;;;;;;;3.10;1.58;;;30.30;38.40;;;;;;6249399;28;20240;-64
2022/07/06 16:02:16;;;;;;;1.70;1.60;;;30.30;38.20;;;;;;6254017;28;20570;-65